Athensville, Illinois
Current Conditions -  °F | °C
As of 5:35 AM on Thursday 27 Nov 2014 (Local Time) from KIJX Reporting Station
Overcast Overcast  
Wind Chill: -7°   Ceiling: 2200
Heat Index: -2°   Visibility: 7mi
Dew Point: -4°   Wind: 12mph
Humidity: 83%   Direction: 310°NW
Pressure: 30.38"   Gusts: NA
Location:  39.491°N, 90.2996°W
Report Text: KIJX 271135Z AUTO 31010KT 7SM OVC022 M02/M04 A3038 RMK AO2 T10171042
Loading
Personal Weather Stations






























Interactive Weather Map New forecast layout! Learn more

10-Day Weather Forecast

Advertisements
Track Severe Weather on mobile